sensor_id;sensor_type;location;lat;lon;timestamp;P1;durP1;ratioP1;P2;durP2;ratioP2
13432;SDS011;6789;47.678;9.158;2023-01-29T00:01:28;11.07;;;5.73;;
13432;SDS011;6789;47.678;9.158;2023-01-29T00:06:47;8.77;;;3.93;;
13432;SDS011;6789;47.678;9.158;2023-01-29T00:11:53;9.43;;;5.27;;
13432;SDS011;6789;47.678;9.158;2023-01-29T00:17:22;10.07;;;4.70;;
13432;SDS011;6789;47.678;9.158;2023-01-29T00:35:25;8.60;;;4.50;;
13432;SDS011;6789;47.678;9.158;2023-01-29T00:40:42;11.33;;;4.73;;
13432;SDS011;6789;47.678;9.158;2023-01-29T00:46:17;9.40;;;4.60;;
13432;SDS011;6789;47.678;9.158;2023-01-29T00:51:28;10.77;;;4.60;;
13432;SDS011;6789;47.678;9.158;2023-01-29T00:56:35;6.97;;;4.07;;
13432;SDS011;6789;47.678;9.158;2023-01-29T01:01:44;8.23;;;4.30;;
13432;SDS011;6789;47.678;9.158;2023-01-29T01:07:09;7.57;;;4.03;;
13432;SDS011;6789;47.678;9.158;2023-01-29T01:12:01;8.53;;;4.00;;
13432;SDS011;6789;47.678;9.158;2023-01-29T01:17:17;7.80;;;3.80;;
13432;SDS011;6789;47.678;9.158;2023-01-29T01:22:45;6.80;;;3.43;;
13432;SDS011;6789;47.678;9.158;2023-01-29T01:28:22;8.77;;;4.30;;
13432;SDS011;6789;47.678;9.158;2023-01-29T01:33:29;8.37;;;4.00;;
13432;SDS011;6789;47.678;9.158;2023-01-29T01:38:44;7.10;;;3.80;;
13432;SDS011;6789;47.678;9.158;2023-01-29T01:44:04;6.77;;;3.47;;
13432;SDS011;6789;47.678;9.158;2023-01-29T01:49:15;5.57;;;3.50;;
13432;SDS011;6789;47.678;9.158;2023-01-29T01:54:50;8.60;;;3.60;;
13432;SDS011;6789;47.678;9.158;2023-01-29T02:00:09;7.30;;;4.13;;
13432;SDS011;6789;47.678;9.158;2023-01-29T02:05:34;8.13;;;4.17;;
13432;SDS011;6789;47.678;9.158;2023-01-29T02:11:06;8.73;;;4.37;;
13432;SDS011;6789;47.678;9.158;2023-01-29T02:16:13;6.67;;;3.97;;
13432;SDS011;6789;47.678;9.158;2023-01-29T02:32:41;8.63;;;4.13;;
13432;SDS011;6789;47.678;9.158;2023-01-29T02:38:30;7.07;;;4.50;;
13432;SDS011;6789;47.678;9.158;2023-01-29T02:44:20;7.13;;;4.23;;
13432;SDS011;6789;47.678;9.158;2023-01-29T02:50:18;6.47;;;3.90;;
13432;SDS011;6789;47.678;9.158;2023-01-29T03:01:42;7.07;;;3.80;;
13432;SDS011;6789;47.678;9.158;2023-01-29T03:07:06;8.10;;;4.50;;
13432;SDS011;6789;47.678;9.158;2023-01-29T03:12:55;7.77;;;4.00;;
13432;SDS011;6789;47.678;9.158;2023-01-29T03:18:14;6.20;;;3.63;;
13432;SDS011;6789;47.678;9.158;2023-01-29T03:23:32;7.33;;;4.60;;
13432;SDS011;6789;47.678;9.158;2023-01-29T03:29:02;6.77;;;3.60;;
13432;SDS011;6789;47.678;9.158;2023-01-29T03:34:41;6.07;;;3.87;;
13432;SDS011;6789;47.678;9.158;2023-01-29T03:39:55;7.50;;;4.03;;
13432;SDS011;6789;47.678;9.158;2023-01-29T03:50:09;7.67;;;3.47;;
13432;SDS011;6789;47.678;9.158;2023-01-29T03:55:25;4.33;;;3.10;;
13432;SDS011;6789;47.678;9.158;2023-01-29T04:00:45;7.97;;;3.77;;
13432;SDS011;6789;47.678;9.158;2023-01-29T04:06:01;8.80;;;4.20;;
13432;SDS011;6789;47.678;9.158;2023-01-29T04:11:09;7.43;;;3.73;;
13432;SDS011;6789;47.678;9.158;2023-01-29T04:16:07;6.07;;;3.67;;
13432;SDS011;6789;47.678;9.158;2023-01-29T04:21:07;8.67;;;4.27;;
13432;SDS011;6789;47.678;9.158;2023-01-29T04:31:31;8.60;;;3.87;;
13432;SDS011;6789;47.678;9.158;2023-01-29T04:36:37;6.67;;;3.77;;
13432;SDS011;6789;47.678;9.158;2023-01-29T04:52:44;4.77;;;3.07;;
13432;SDS011;6789;47.678;9.158;2023-01-29T05:02:44;6.60;;;3.80;;
13432;SDS011;6789;47.678;9.158;2023-01-29T05:07:51;5.83;;;3.27;;
13432;SDS011;6789;47.678;9.158;2023-01-29T05:12:48;5.37;;;3.30;;
13432;SDS011;6789;47.678;9.158;2023-01-29T05:18:05;6.20;;;3.30;;
13432;SDS011;6789;47.678;9.158;2023-01-29T05:23:00;7.27;;;3.23;;
13432;SDS011;6789;47.678;9.158;2023-01-29T05:27:56;4.70;;;2.93;;
13432;SDS011;6789;47.678;9.158;2023-01-29T05:38:22;6.27;;;3.50;;
13432;SDS011;6789;47.678;9.158;2023-01-29T05:43:18;6.30;;;3.10;;
13432;SDS011;6789;47.678;9.158;2023-01-29T05:48:13;4.87;;;3.03;;
13432;SDS011;6789;47.678;9.158;2023-01-29T05:53:19;5.90;;;3.00;;
13432;SDS011;6789;47.678;9.158;2023-01-29T05:58:19;5.50;;;3.40;;
13432;SDS011;6789;47.678;9.158;2023-01-29T06:03:13;5.37;;;2.97;;
13432;SDS011;6789;47.678;9.158;2023-01-29T06:08:14;4.83;;;3.03;;
13432;SDS011;6789;47.678;9.158;2023-01-29T06:13:20;7.90;;;3.93;;
13432;SDS011;6789;47.678;9.158;2023-01-29T06:18:26;6.90;;;3.60;;
13432;SDS011;6789;47.678;9.158;2023-01-29T06:23:32;7.23;;;3.20;;
13432;SDS011;6789;47.678;9.158;2023-01-29T06:28:29;5.33;;;3.60;;
13432;SDS011;6789;47.678;9.158;2023-01-29T06:33:25;5.83;;;3.67;;
13432;SDS011;6789;47.678;9.158;2023-01-29T06:38:31;5.80;;;3.27;;
13432;SDS011;6789;47.678;9.158;2023-01-29T06:43:37;6.87;;;3.60;;
13432;SDS011;6789;47.678;9.158;2023-01-29T06:48:33;7.13;;;3.60;;
13432;SDS011;6789;47.678;9.158;2023-01-29T06:53:38;5.30;;;3.27;;
13432;SDS011;6789;47.678;9.158;2023-01-29T06:58:44;9.93;;;4.70;;
13432;SDS011;6789;47.678;9.158;2023-01-29T07:03:36;6.23;;;3.80;;
13432;SDS011;6789;47.678;9.158;2023-01-29T07:08:42;8.80;;;4.23;;
13432;SDS011;6789;47.678;9.158;2023-01-29T07:13:48;7.73;;;4.33;;
13432;SDS011;6789;47.678;9.158;2023-01-29T07:18:54;8.87;;;4.90;;
13432;SDS011;6789;47.678;9.158;2023-01-29T07:24:00;8.23;;;4.77;;
13432;SDS011;6789;47.678;9.158;2023-01-29T07:29:00;11.27;;;5.10;;
13432;SDS011;6789;47.678;9.158;2023-01-29T07:33:59;10.73;;;5.50;;
13432;SDS011;6789;47.678;9.158;2023-01-29T07:39:05;9.77;;;5.67;;
13432;SDS011;6789;47.678;9.158;2023-01-29T07:44:04;9.50;;;5.23;;
13432;SDS011;6789;47.678;9.158;2023-01-29T07:49:04;11.10;;;6.10;;
13432;SDS011;6789;47.678;9.158;2023-01-29T07:54:10;8.87;;;5.30;;
13432;SDS011;6789;47.678;9.158;2023-01-29T07:59:16;8.80;;;5.23;;
13432;SDS011;6789;47.678;9.158;2023-01-29T08:04:21;9.27;;;5.07;;
13432;SDS011;6789;47.678;9.158;2023-01-29T08:09:27;10.37;;;4.97;;
13432;SDS011;6789;47.678;9.158;2023-01-29T08:14:27;9.90;;;5.30;;
13432;SDS011;6789;47.678;9.158;2023-01-29T08:19:23;8.20;;;4.77;;
13432;SDS011;6789;47.678;9.158;2023-01-29T08:24:29;8.40;;;4.23;;
13432;SDS011;6789;47.678;9.158;2023-01-29T08:29:35;9.20;;;4.93;;
13432;SDS011;6789;47.678;9.158;2023-01-29T08:34:43;8.50;;;4.97;;
13432;SDS011;6789;47.678;9.158;2023-01-29T08:39:37;7.93;;;4.50;;
13432;SDS011;6789;47.678;9.158;2023-01-29T08:44:32;8.60;;;4.40;;
13432;SDS011;6789;47.678;9.158;2023-01-29T08:49:24;9.13;;;4.77;;
13432;SDS011;6789;47.678;9.158;2023-01-29T08:54:30;9.00;;;4.57;;
13432;SDS011;6789;47.678;9.158;2023-01-29T08:59:23;9.30;;;4.80;;
13432;SDS011;6789;47.678;9.158;2023-01-29T09:04:28;9.80;;;4.70;;
13432;SDS011;6789;47.678;9.158;2023-01-29T09:09:34;9.23;;;5.03;;
13432;SDS011;6789;47.678;9.158;2023-01-29T09:14:41;10.83;;;5.40;;
13432;SDS011;6789;47.678;9.158;2023-01-29T09:19:47;7.63;;;4.90;;
13432;SDS011;6789;47.678;9.158;2023-01-29T09:24:53;9.40;;;5.13;;
13432;SDS011;6789;47.678;9.158;2023-01-29T09:29:59;7.33;;;4.30;;
13432;SDS011;6789;47.678;9.158;2023-01-29T09:34:55;9.10;;;5.33;;
13432;SDS011;6789;47.678;9.158;2023-01-29T09:39:52;10.23;;;5.30;;
13432;SDS011;6789;47.678;9.158;2023-01-29T09:50:05;11.53;;;5.77;;
13432;SDS011;6789;47.678;9.158;2023-01-29T09:55:21;10.37;;;5.40;;
13432;SDS011;6789;47.678;9.158;2023-01-29T10:06:20;8.63;;;5.03;;
13432;SDS011;6789;47.678;9.158;2023-01-29T10:23:06;11.93;;;5.43;;
13432;SDS011;6789;47.678;9.158;2023-01-29T10:28:35;10.63;;;6.07;;
13432;SDS011;6789;47.678;9.158;2023-01-29T10:33:39;10.10;;;6.10;;
13432;SDS011;6789;47.678;9.158;2023-01-29T10:38:49;9.60;;;5.60;;
13432;SDS011;6789;47.678;9.158;2023-01-29T10:44:14;12.63;;;6.60;;
13432;SDS011;6789;47.678;9.158;2023-01-29T10:55:32;9.07;;;5.50;;
13432;SDS011;6789;47.678;9.158;2023-01-29T11:00:55;10.50;;;5.67;;
13432;SDS011;6789;47.678;9.158;2023-01-29T11:11:08;9.33;;;5.07;;
13432;SDS011;6789;47.678;9.158;2023-01-29T11:16:26;12.03;;;6.03;;
13432;SDS011;6789;47.678;9.158;2023-01-29T11:27:12;12.37;;;6.10;;
13432;SDS011;6789;47.678;9.158;2023-01-29T11:32:34;9.97;;;5.90;;
13432;SDS011;6789;47.678;9.158;2023-01-29T11:37:31;9.47;;;5.30;;
13432;SDS011;6789;47.678;9.158;2023-01-29T11:42:29;8.60;;;5.20;;
13432;SDS011;6789;47.678;9.158;2023-01-29T11:47:36;9.43;;;5.20;;
13432;SDS011;6789;47.678;9.158;2023-01-29T11:52:42;9.90;;;5.57;;
13432;SDS011;6789;47.678;9.158;2023-01-29T11:58:11;13.63;;;5.77;;
13432;SDS011;6789;47.678;9.158;2023-01-29T12:08:55;8.27;;;5.60;;
13432;SDS011;6789;47.678;9.158;2023-01-29T12:13:58;10.10;;;5.90;;
13432;SDS011;6789;47.678;9.158;2023-01-29T12:19:10;10.50;;;5.90;;
13432;SDS011;6789;47.678;9.158;2023-01-29T12:24:34;9.23;;;5.93;;
13432;SDS011;6789;47.678;9.158;2023-01-29T12:35:51;11.77;;;5.90;;
13432;SDS011;6789;47.678;9.158;2023-01-29T12:41:07;8.70;;;5.10;;
13432;SDS011;6789;47.678;9.158;2023-01-29T12:46:49;8.70;;;5.23;;
13432;SDS011;6789;47.678;9.158;2023-01-29T12:57:46;9.83;;;5.87;;
13432;SDS011;6789;47.678;9.158;2023-01-29T13:08:50;9.73;;;5.77;;
13432;SDS011;6789;47.678;9.158;2023-01-29T13:14:21;10.47;;;6.33;;
13432;SDS011;6789;47.678;9.158;2023-01-29T13:19:44;9.13;;;5.77;;
13432;SDS011;6789;47.678;9.158;2023-01-29T13:24:55;11.90;;;6.13;;
13432;SDS011;6789;47.678;9.158;2023-01-29T13:30:02;8.20;;;4.93;;
13432;SDS011;6789;47.678;9.158;2023-01-29T13:35:13;10.13;;;5.53;;
13432;SDS011;6789;47.678;9.158;2023-01-29T13:45:33;10.43;;;5.57;;
13432;SDS011;6789;47.678;9.158;2023-01-29T13:50:48;10.37;;;5.93;;
13432;SDS011;6789;47.678;9.158;2023-01-29T13:56:26;11.63;;;6.20;;
13432;SDS011;6789;47.678;9.158;2023-01-29T14:06:56;7.30;;;4.67;;
13432;SDS011;6789;47.678;9.158;2023-01-29T14:12:06;8.67;;;5.13;;
13432;SDS011;6789;47.678;9.158;2023-01-29T14:17:29;10.23;;;5.53;;
13432;SDS011;6789;47.678;9.158;2023-01-29T14:22:35;8.40;;;5.40;;
13432;SDS011;6789;47.678;9.158;2023-01-29T14:27:28;9.50;;;5.43;;
13432;SDS011;6789;47.678;9.158;2023-01-29T14:32:37;8.97;;;5.60;;
13432;SDS011;6789;47.678;9.158;2023-01-29T14:37:45;8.53;;;5.67;;
13432;SDS011;6789;47.678;9.158;2023-01-29T14:43:03;9.87;;;5.67;;
13432;SDS011;6789;47.678;9.158;2023-01-29T14:53:47;10.63;;;5.80;;
13432;SDS011;6789;47.678;9.158;2023-01-29T14:59:10;10.67;;;6.70;;
13432;SDS011;6789;47.678;9.158;2023-01-29T15:04:40;9.83;;;6.40;;
13432;SDS011;6789;47.678;9.158;2023-01-29T15:09:59;13.73;;;6.97;;
13432;SDS011;6789;47.678;9.158;2023-01-29T15:21:15;10.73;;;6.80;;
13432;SDS011;6789;47.678;9.158;2023-01-29T15:26:16;12.23;;;6.83;;
13432;SDS011;6789;47.678;9.158;2023-01-29T15:31:18;12.23;;;7.00;;
13432;SDS011;6789;47.678;9.158;2023-01-29T15:36:25;12.53;;;7.07;;
13432;SDS011;6789;47.678;9.158;2023-01-29T15:41:35;13.23;;;7.63;;
13432;SDS011;6789;47.678;9.158;2023-01-29T15:46:42;11.50;;;6.67;;
13432;SDS011;6789;47.678;9.158;2023-01-29T15:51:53;12.73;;;6.87;;
13432;SDS011;6789;47.678;9.158;2023-01-29T15:57:02;10.10;;;6.37;;
13432;SDS011;6789;47.678;9.158;2023-01-29T16:07:27;10.93;;;5.73;;
13432;SDS011;6789;47.678;9.158;2023-01-29T16:12:34;12.83;;;6.63;;
13432;SDS011;6789;47.678;9.158;2023-01-29T16:17:40;10.87;;;5.93;;
13432;SDS011;6789;47.678;9.158;2023-01-29T16:22:35;12.23;;;7.60;;
13432;SDS011;6789;47.678;9.158;2023-01-29T16:27:42;12.80;;;7.23;;
13432;SDS011;6789;47.678;9.158;2023-01-29T16:32:48;13.00;;;6.97;;
13432;SDS011;6789;47.678;9.158;2023-01-29T16:37:45;11.53;;;6.00;;
13432;SDS011;6789;47.678;9.158;2023-01-29T16:48:25;12.67;;;6.80;;
13432;SDS011;6789;47.678;9.158;2023-01-29T16:53:36;10.63;;;6.17;;
13432;SDS011;6789;47.678;9.158;2023-01-29T16:58:42;13.43;;;6.27;;
13432;SDS011;6789;47.678;9.158;2023-01-29T17:03:57;11.17;;;5.90;;
13432;SDS011;6789;47.678;9.158;2023-01-29T17:09:28;9.53;;;5.47;;
13432;SDS011;6789;47.678;9.158;2023-01-29T17:14:38;11.20;;;6.57;;
13432;SDS011;6789;47.678;9.158;2023-01-29T17:19:56;12.53;;;6.50;;
13432;SDS011;6789;47.678;9.158;2023-01-29T17:25:22;12.13;;;7.17;;
13432;SDS011;6789;47.678;9.158;2023-01-29T17:30:32;11.80;;;6.77;;
13432;SDS011;6789;47.678;9.158;2023-01-29T17:35:41;12.80;;;6.70;;
13432;SDS011;6789;47.678;9.158;2023-01-29T17:40:50;14.83;;;7.70;;
13432;SDS011;6789;47.678;9.158;2023-01-29T17:46:04;14.97;;;7.43;;
13432;SDS011;6789;47.678;9.158;2023-01-29T17:51:14;15.33;;;7.83;;
13432;SDS011;6789;47.678;9.158;2023-01-29T17:56:17;13.70;;;7.30;;
13432;SDS011;6789;47.678;9.158;2023-01-29T18:01:29;13.40;;;7.10;;
13432;SDS011;6789;47.678;9.158;2023-01-29T18:06:26;16.47;;;7.27;;
13432;SDS011;6789;47.678;9.158;2023-01-29T18:11:33;12.17;;;6.33;;
13432;SDS011;6789;47.678;9.158;2023-01-29T18:16:39;13.50;;;7.93;;
13432;SDS011;6789;47.678;9.158;2023-01-29T18:21:47;13.30;;;7.17;;
13432;SDS011;6789;47.678;9.158;2023-01-29T18:26:54;13.43;;;7.37;;
13432;SDS011;6789;47.678;9.158;2023-01-29T18:32:01;13.47;;;7.53;;
13432;SDS011;6789;47.678;9.158;2023-01-29T18:37:08;14.47;;;7.50;;
13432;SDS011;6789;47.678;9.158;2023-01-29T18:42:14;14.37;;;7.27;;
13432;SDS011;6789;47.678;9.158;2023-01-29T18:47:21;14.77;;;7.53;;
13432;SDS011;6789;47.678;9.158;2023-01-29T18:52:27;12.40;;;7.20;;
13432;SDS011;6789;47.678;9.158;2023-01-29T18:57:23;12.70;;;7.13;;
13432;SDS011;6789;47.678;9.158;2023-01-29T19:02:28;13.40;;;7.17;;
13432;SDS011;6789;47.678;9.158;2023-01-29T19:07:21;14.40;;;7.07;;
13432;SDS011;6789;47.678;9.158;2023-01-29T19:12:27;16.80;;;7.93;;
13432;SDS011;6789;47.678;9.158;2023-01-29T19:17:32;14.90;;;7.93;;
13432;SDS011;6789;47.678;9.158;2023-01-29T19:22:25;15.80;;;8.20;;
13432;SDS011;6789;47.678;9.158;2023-01-29T19:27:21;14.60;;;7.70;;
13432;SDS011;6789;47.678;9.158;2023-01-29T19:32:27;14.20;;;7.87;;
13432;SDS011;6789;47.678;9.158;2023-01-29T19:37:27;14.00;;;8.10;;
13432;SDS011;6789;47.678;9.158;2023-01-29T19:42:36;17.33;;;8.73;;
13432;SDS011;6789;47.678;9.158;2023-01-29T19:47:29;15.97;;;8.80;;
13432;SDS011;6789;47.678;9.158;2023-01-29T19:52:36;15.03;;;8.50;;
13432;SDS011;6789;47.678;9.158;2023-01-29T19:57:42;16.37;;;8.33;;
13432;SDS011;6789;47.678;9.158;2023-01-29T20:02:35;15.20;;;8.43;;
13432;SDS011;6789;47.678;9.158;2023-01-29T20:07:27;14.03;;;7.93;;
13432;SDS011;6789;47.678;9.158;2023-01-29T20:12:21;18.97;;;8.33;;
13432;SDS011;6789;47.678;9.158;2023-01-29T20:17:16;16.57;;;9.40;;
13432;SDS011;6789;47.678;9.158;2023-01-29T20:22:22;16.70;;;8.33;;
13432;SDS011;6789;47.678;9.158;2023-01-29T20:27:17;17.80;;;9.87;;
13432;SDS011;6789;47.678;9.158;2023-01-29T20:32:22;19.07;;;9.70;;
13432;SDS011;6789;47.678;9.158;2023-01-29T20:37:28;17.87;;;9.30;;
13432;SDS011;6789;47.678;9.158;2023-01-29T20:42:35;16.70;;;9.03;;
13432;SDS011;6789;47.678;9.158;2023-01-29T20:47:41;19.73;;;10.27;;
13432;SDS011;6789;47.678;9.158;2023-01-29T20:52:36;25.07;;;10.97;;
13432;SDS011;6789;47.678;9.158;2023-01-29T20:57:44;19.93;;;9.43;;
13432;SDS011;6789;47.678;9.158;2023-01-29T21:02:56;22.30;;;11.10;;
13432;SDS011;6789;47.678;9.158;2023-01-29T21:07:50;18.10;;;9.53;;
13432;SDS011;6789;47.678;9.158;2023-01-29T21:12:56;19.83;;;10.23;;
13432;SDS011;6789;47.678;9.158;2023-01-29T21:17:49;22.83;;;10.00;;
13432;SDS011;6789;47.678;9.158;2023-01-29T21:22:55;18.77;;;9.30;;
13432;SDS011;6789;47.678;9.158;2023-01-29T21:28:00;23.07;;;10.90;;
13432;SDS011;6789;47.678;9.158;2023-01-29T21:33:08;17.77;;;9.47;;
13432;SDS011;6789;47.678;9.158;2023-01-29T21:38:15;21.17;;;10.20;;
13432;SDS011;6789;47.678;9.158;2023-01-29T21:43:21;18.10;;;9.03;;
13432;SDS011;6789;47.678;9.158;2023-01-29T21:48:27;23.93;;;10.57;;
13432;SDS011;6789;47.678;9.158;2023-01-29T21:53:33;20.37;;;10.43;;
13432;SDS011;6789;47.678;9.158;2023-01-29T21:58:36;22.53;;;10.80;;
13432;SDS011;6789;47.678;9.158;2023-01-29T22:03:34;20.73;;;10.10;;
13432;SDS011;6789;47.678;9.158;2023-01-29T22:08:39;21.07;;;10.80;;
13432;SDS011;6789;47.678;9.158;2023-01-29T22:13:45;20.80;;;10.57;;
13432;SDS011;6789;47.678;9.158;2023-01-29T22:18:51;22.47;;;10.70;;
13432;SDS011;6789;47.678;9.158;2023-01-29T22:23:57;21.07;;;9.63;;
13432;SDS011;6789;47.678;9.158;2023-01-29T22:29:02;21.40;;;9.83;;
13432;SDS011;6789;47.678;9.158;2023-01-29T22:34:09;22.80;;;10.90;;
13432;SDS011;6789;47.678;9.158;2023-01-29T22:39:16;24.87;;;10.17;;
13432;SDS011;6789;47.678;9.158;2023-01-29T22:44:22;24.37;;;10.47;;
13432;SDS011;6789;47.678;9.158;2023-01-29T22:49:28;19.80;;;10.37;;
13432;SDS011;6789;47.678;9.158;2023-01-29T22:54:39;21.47;;;10.07;;
13432;SDS011;6789;47.678;9.158;2023-01-29T22:59:35;23.87;;;10.60;;
13432;SDS011;6789;47.678;9.158;2023-01-29T23:04:41;23.20;;;9.87;;
13432;SDS011;6789;47.678;9.158;2023-01-29T23:09:37;23.90;;;11.20;;
13432;SDS011;6789;47.678;9.158;2023-01-29T23:14:30;24.00;;;10.30;;
13432;SDS011;6789;47.678;9.158;2023-01-29T23:19:36;24.47;;;10.63;;
13432;SDS011;6789;47.678;9.158;2023-01-29T23:24:29;27.20;;;11.07;;
13432;SDS011;6789;47.678;9.158;2023-01-29T23:29:28;23.43;;;10.27;;
13432;SDS011;6789;47.678;9.158;2023-01-29T23:34:34;22.27;;;10.70;;
13432;SDS011;6789;47.678;9.158;2023-01-29T23:39:40;23.87;;;10.67;;
13432;SDS011;6789;47.678;9.158;2023-01-29T23:44:46;22.30;;;10.67;;
13432;SDS011;6789;47.678;9.158;2023-01-29T23:49:52;20.40;;;10.97;;
13432;SDS011;6789;47.678;9.158;2023-01-29T23:54:57;23.10;;;10.33;;
